AirNav   TITAN Aviation Fuels
 
 1260 users online  

21GE Deer Crossing Airport
Cleveland, Georgia, USA

GOING TO CLEVELAND?


FAA INFORMATION EFFECTIVE 04 NOVEMBER 2021

Location

FAA Identifier: 21GE
Lat/Long: 34-32-59.0000N 083-49-20.0000W
34-32.983333N 083-49.333333W
34.5497222,-83.8222222
(estimated)
Elevation: 1390 ft. / 423.7 m (surveyed)
From city: 4 miles SW of CLEVELAND, GA
Time zone: UTC -4 (UTC -5 during Standard Time)
Zip code: 30528

Airport Operations

Airport use: Private use. Permission required prior to landing
Activation date: 10/2005
Control tower: no
ARTCC: ATLANTA CENTER
FSS: MACON FLIGHT SERVICE STATION
Attendance: IRREG
Segmented circle: no

Airport Communications

WX AWOS-3 at AJR (13 nm E): 119.175 (706-778-3675)
WX ASOS at GVL (17 nm S): 126.475 (770-532-4687)

Nearby radio navigation aids

VOR radial/distance  VOR name  Freq  Var
HRSr169/24.0HARRIS VORTAC109.8000E
ODFr251/27.3FOOTHILLS VOR/DME113.4000E

 
NDB name  Hdg/Dist  Freq  Var  ID
FLOWERY BRANCH014/21.236503WFKV ..-. -.- ...-
CHERO067/37.541505WDJD -.. .--- -..
BARROW COUNTY348/38.640405WBMW -... -- .--

Airport Services

Runway Information

Runway 3/21

Dimensions: 1600 x 120 ft. / 488 x 37 m
Surface: turf
RUNWAY 3  RUNWAY 21
Traffic pattern: leftleft

Airport Ownership and Management from official FAA records

Ownership: Privately-owned
Owner: GEORGE TAYLOR
2155 THOMAS ROAD
CLEVELAND, GA 30528
Phone 706-865-4665
Manager: GEORGE TAYLOR
2155 THOMAS ROAD
CLEVELAND, GA 30528
Phone 706-865-4665

Airport Operational Statistics

Aircraft based on the field: 1
Single engine airplanes: 1
    

Additional Remarks

DEER ON & INVOF ARPT.
RY SHARED WITH HAYFIELD.
OWNER DESIRES APRT NOT BE CHARTED.
FOR CD CTC ATLANTA ARTCC AT 770-210-7692.

Instrument Procedures

There are no published instrument procedures at 21GE.

Some nearby airports with instrument procedures:

KAJR - Habersham County Airport (13 nm E)
KGVL - Lee Gilmer Memorial Airport (17 nm S)
KDZJ - Blairsville Airport (20 nm NW)
KJCA - Jackson County Airport (26 nm SE)
KTOC - Toccoa Airport-RG Letourneau Field (26 nm E)
 
Loc | Ops | Rwys | IFR | FBO | Links
Com | Nav | Svcs | Stats | Notes
Area around 21GE (Deer Crossing Airport)
 
Road maps at: MapQuest Bing Google
 
Aerial photo
No photo
 
Sectional chart

 
Airport distance calculator
Flying to Deer Crossing Airport? Find the distance to fly.

From to 21GE

Sunrise and sunset
Times for 28-Nov-2021
 Local
(UTC-5)
 Zulu
(UTC)
Morning civil twilight06:5511:55
Sunrise07:2212:22
Sunset17:2422:24
Evening civil twilight17:5222:52

Current date and time
Zulu (UTC)  28-Nov-2021 19:47:53
Local (UTC-5)  28-Nov-2021 14:47:53
 
METAR
KAJR 
13nm E 
281935Z AUTO 29008G16KT 10SM CLR 17/M02 A2992 RMK AO2 T01701025
KGVL 
17nm S 
281853Z AUTO 26008KT 10SM CLR 14/M01 A2996 RMK AO2 SLP142 T01391006
KDZJ 
20nm NW 
281935Z AUTO 29005G15KT 10SM CLR 14/00 A2996 RMK AO2 T01371002
KJCA 
26nm SE 
281930Z AUTO 28009KT 10SM CLR 15/00 A2994 RMK AO2 T01510002
KTOC 
26nm E 
281935Z AUTO 00000KT 10SM CLR 18/M01 A2991 RMK AO2 T01771011
TAF
KAHN 
43nm SE 
281738Z 2818/2918 28006KT P6SM BKN250 FM290000 29006KT P6SM FEW250 FM291500 02004KT P6SM SKC FM291700 33004KT P6SM SKC
KPDK 
46nm SW 
281738Z 2818/2918 29007KT P6SM BKN250 FM290200 32006KT P6SM FEW250 FM291500 34009G19KT P6SM SKC
NOTAMs
Click for the latest NOTAMs
NOTAMs are issued by the DoD/FAA and will open in a separate window not controlled by AirNav.

 

 
 

Would you like to see your business listed on this page?

 If your business provides an interesting product or service to pilots, flight crews, aircraft, or users of the Deer Crossing Airport, you should consider listing it here.  To start the listing process, click on the button below
 
Add a business
 

Other Pages about Deer Crossing Airport

Update a link
 
Copyright © AirNav, LLC. All rights reserved. Privacy Policy  Contact